Terminal Aerodrome Forecast
Issued by NWS

Home | Current Version | Previous Version | Text Only | Print | Product List | Glossary On
Versions: 1 2 3 4 5 6 7 8 9 10 11 12
000
FTUS45 KRIW 282300
TAFJAC
TAF
KJAC 282324Z 2900/2924 VRB10G15KT P6SM VCSH SCT080 BKN120
     FM290300 34007KT P6SM VCSH SCT060 BKN100
     FM291600 VRB06KT P6SM VCSH SCT035 BKN050
     FM291900 32007KT P6SM -SHRA BKN035
      AMD LTD TO CLD VIS AND WIND=

USA.gov is the U.S. government's official web portal to all federal, state and local government web resources and services.